sensor_id;sensor_type;location;lat;lon;timestamp;pressure;altitude;pressure_sealevel;temperature;humidity
18900;BME280;9582;52.018;6.306;2024-02-15T00:00:51;94235.59;;;11.96;74.98
18900;BME280;9582;52.018;6.306;2024-02-15T00:03:18;94213.88;;;11.95;74.92
18900;BME280;9582;52.018;6.306;2024-02-15T00:05:46;94234.31;;;11.98;74.81
18900;BME280;9582;52.018;6.306;2024-02-15T00:08:12;94164.97;;;11.96;74.80
18900;BME280;9582;52.018;6.306;2024-02-15T00:10:40;94116.84;;;11.97;74.69
18900;BME280;9582;52.018;6.306;2024-02-15T00:13:07;94121.31;;;11.96;74.54
18900;BME280;9582;52.018;6.306;2024-02-15T00:15:33;94095.16;;;11.96;74.42
18900;BME280;9582;52.018;6.306;2024-02-15T00:18:02;94044.66;;;11.96;74.31
18900;BME280;9582;52.018;6.306;2024-02-15T00:20:29;93992.09;;;11.97;73.93
18900;BME280;9582;52.018;6.306;2024-02-15T00:22:57;93967.22;;;11.95;73.84
18900;BME280;9582;52.018;6.306;2024-02-15T00:25:23;93915.47;;;11.97;73.85
18900;BME280;9582;52.018;6.306;2024-02-15T00:27:51;93681.69;;;11.98;73.93
18900;BME280;9582;52.018;6.306;2024-02-15T00:30:18;93634.63;;;11.98;74.00
18900;BME280;9582;52.018;6.306;2024-02-15T00:32:45;93498.63;;;11.98;74.13
18900;BME280;9582;52.018;6.306;2024-02-15T00:35:12;93462.81;;;11.98;74.10
18900;BME280;9582;52.018;6.306;2024-02-15T00:37:40;93447.38;;;11.97;74.18
18900;BME280;9582;52.018;6.306;2024-02-15T00:40:08;93375.22;;;11.96;73.24
18900;BME280;9582;52.018;6.306;2024-02-15T00:42:35;92692.03;;;11.95;73.27
18900;BME280;9582;52.018;6.306;2024-02-15T00:45:02;93042.63;;;11.94;73.34
18900;BME280;9582;52.018;6.306;2024-02-15T00:47:30;93051.78;;;11.91;73.32
18900;BME280;9582;52.018;6.306;2024-02-15T00:49:58;92994.00;;;11.93;73.33
18900;BME280;9582;52.018;6.306;2024-02-15T00:52:24;93028.00;;;11.93;73.32
18900;BME280;9582;52.018;6.306;2024-02-15T00:54:52;93041.06;;;11.93;73.43
18900;BME280;9582;52.018;6.306;2024-02-15T00:57:20;92983.56;;;11.93;73.37
18900;BME280;9582;52.018;6.306;2024-02-15T00:59:46;92974.13;;;11.92;73.45
18900;BME280;9582;52.018;6.306;2024-02-15T01:02:14;92990.88;;;11.91;73.31
18900;BME280;9582;52.018;6.306;2024-02-15T01:04:40;93021.72;;;11.89;73.40
18900;BME280;9582;52.018;6.306;2024-02-15T01:07:08;93006.03;;;11.89;73.50
18900;BME280;9582;52.018;6.306;2024-02-15T01:09:34;93016.50;;;11.89;73.62
18900;BME280;9582;52.018;6.306;2024-02-15T01:12:01;92916.66;;;11.87;73.72
18900;BME280;9582;52.018;6.306;2024-02-15T01:14:30;92772.59;;;11.88;73.61
18900;BME280;9582;52.018;6.306;2024-02-15T01:16:57;92815.19;;;11.89;73.55
18900;BME280;9582;52.018;6.306;2024-02-15T01:19:24;92856.25;;;11.88;73.43
18900;BME280;9582;52.018;6.306;2024-02-15T01:21:50;92679.56;;;11.87;73.51
18900;BME280;9582;52.018;6.306;2024-02-15T01:24:18;92654.97;;;11.88;73.45
18900;BME280;9582;52.018;6.306;2024-02-15T01:26:45;92675.13;;;11.88;73.34
18900;BME280;9582;52.018;6.306;2024-02-15T01:29:13;92719.81;;;11.86;73.39
18900;BME280;9582;52.018;6.306;2024-02-15T01:31:41;92697.84;;;11.87;73.32
18900;BME280;9582;52.018;6.306;2024-02-15T01:34:08;92710.13;;;11.87;73.41
18900;BME280;9582;52.018;6.306;2024-02-15T01:36:35;92697.06;;;11.87;73.47
18900;BME280;9582;52.018;6.306;2024-02-15T01:39:02;92692.63;;;11.87;73.54
18900;BME280;9582;52.018;6.306;2024-02-15T01:41:28;92692.13;;;11.85;73.55
18900;BME280;9582;52.018;6.306;2024-02-15T01:43:55;92690.56;;;11.84;73.68
18900;BME280;9582;52.018;6.306;2024-02-15T01:46:21;92684.53;;;11.84;73.57
18900;BME280;9582;52.018;6.306;2024-02-15T01:48:49;92710.69;;;11.84;73.46
18900;BME280;9582;52.018;6.306;2024-02-15T01:51:16;92554.66;;;11.84;73.45
18900;BME280;9582;52.018;6.306;2024-02-15T01:53:43;92547.06;;;11.83;73.31
18900;BME280;9582;52.018;6.306;2024-02-15T01:56:13;92544.97;;;11.85;73.15
18900;BME280;9582;52.018;6.306;2024-02-15T01:58:40;92547.84;;;11.83;73.13
18900;BME280;9582;52.018;6.306;2024-02-15T02:01:08;92529.56;;;11.83;72.98
18900;BME280;9582;52.018;6.306;2024-02-15T02:03:35;92572.44;;;11.82;72.78
18900;BME280;9582;52.018;6.306;2024-02-15T02:06:03;92340.59;;;11.83;72.50
18900;BME280;9582;52.018;6.306;2024-02-15T02:08:30;92321.25;;;11.84;72.68
18900;BME280;9582;52.018;6.306;2024-02-15T02:10:57;92405.94;;;11.83;72.53
18900;BME280;9582;52.018;6.306;2024-02-15T02:13:24;92263.75;;;11.84;72.30
18900;BME280;9582;52.018;6.306;2024-02-15T02:15:50;92274.69;;;11.86;71.79
18900;BME280;9582;52.018;6.306;2024-02-15T02:18:17;92276.81;;;11.84;71.70
18900;BME280;9582;52.018;6.306;2024-02-15T02:20:43;92082.16;;;11.81;71.99
18900;BME280;9582;52.018;6.306;2024-02-15T02:23:14;92090.78;;;11.82;70.05
18900;BME280;9582;52.018;6.306;2024-02-15T02:25:45;92115.84;;;11.83;70.10
18900;BME280;9582;52.018;6.306;2024-02-15T02:28:15;92039.31;;;11.82;70.23
18900;BME280;9582;52.018;6.306;2024-02-15T02:30:42;92006.41;;;11.81;70.13
18900;BME280;9582;52.018;6.306;2024-02-15T02:33:11;92109.94;;;11.77;70.10
18900;BME280;9582;52.018;6.306;2024-02-15T02:35:44;92183.59;;;11.79;69.94
18900;BME280;9582;52.018;6.306;2024-02-15T02:38:13;92230.34;;;11.81;69.80
18900;BME280;9582;52.018;6.306;2024-02-15T02:40:40;92287.56;;;11.82;69.75
18900;BME280;9582;52.018;6.306;2024-02-15T02:43:08;92281.56;;;11.82;69.75
18900;BME280;9582;52.018;6.306;2024-02-15T02:45:35;92208.09;;;11.83;69.80
18900;BME280;9582;52.018;6.306;2024-02-15T02:48:02;92222.44;;;11.86;70.04
18900;BME280;9582;52.018;6.306;2024-02-15T02:50:28;92140.34;;;11.87;70.28
18900;BME280;9582;52.018;6.306;2024-02-15T02:52:55;92088.47;;;11.80;70.25
18900;BME280;9582;52.018;6.306;2024-02-15T02:55:22;92051.38;;;11.78;69.97
18900;BME280;9582;52.018;6.306;2024-02-15T02:57:49;92109.66;;;11.79;70.01
18900;BME280;9582;52.018;6.306;2024-02-15T03:00:18;92082.97;;;11.82;70.33
18900;BME280;9582;52.018;6.306;2024-02-15T03:02:46;92098.72;;;11.77;70.32
18900;BME280;9582;52.018;6.306;2024-02-15T03:05:12;92105.00;;;11.76;70.37
18900;BME280;9582;52.018;6.306;2024-02-15T03:07:40;92120.97;;;11.74;70.41
18900;BME280;9582;52.018;6.306;2024-02-15T03:10:07;92122.31;;;11.72;70.35
18900;BME280;9582;52.018;6.306;2024-02-15T03:12:35;92080.50;;;11.72;70.36
18900;BME280;9582;52.018;6.306;2024-02-15T03:15:02;92043.91;;;11.72;70.61
18900;BME280;9582;52.018;6.306;2024-02-15T03:17:30;92028.25;;;11.72;70.68
18900;BME280;9582;52.018;6.306;2024-02-15T03:19:57;92043.91;;;11.72;70.67
18900;BME280;9582;52.018;6.306;2024-02-15T03:22:24;92058.84;;;11.71;70.78
18900;BME280;9582;52.018;6.306;2024-02-15T03:24:51;92062.00;;;11.68;70.87
18900;BME280;9582;52.018;6.306;2024-02-15T03:27:19;92079.00;;;11.66;71.06
18900;BME280;9582;52.018;6.306;2024-02-15T03:29:48;92116.19;;;11.63;71.30
18900;BME280;9582;52.018;6.306;2024-02-15T03:32:15;92136.88;;;11.59;71.59
18900;BME280;9582;52.018;6.306;2024-02-15T03:34:43;92113.56;;;11.63;71.66
18900;BME280;9582;52.018;6.306;2024-02-15T03:37:10;92120.91;;;11.60;71.83
18900;BME280;9582;52.018;6.306;2024-02-15T03:39:37;92086.75;;;11.57;71.85
18900;BME280;9582;52.018;6.306;2024-02-15T03:42:04;92057.25;;;11.56;71.89
18900;BME280;9582;52.018;6.306;2024-02-15T03:44:31;92075.22;;;11.58;71.97
18900;BME280;9582;52.018;6.306;2024-02-15T03:46:57;92055.41;;;11.57;72.29
18900;BME280;9582;52.018;6.306;2024-02-15T03:49:24;91803.38;;;11.54;72.47
18900;BME280;9582;52.018;6.306;2024-02-15T03:51:53;91678.00;;;11.54;72.52
18900;BME280;9582;52.018;6.306;2024-02-15T03:54:20;91675.22;;;11.51;72.69
18900;BME280;9582;52.018;6.306;2024-02-15T03:56:48;91674.44;;;11.50;72.68
18900;BME280;9582;52.018;6.306;2024-02-15T03:59:17;91689.66;;;11.48;72.68
18900;BME280;9582;52.018;6.306;2024-02-15T04:01:45;91678.44;;;11.48;72.80
18900;BME280;9582;52.018;6.306;2024-02-15T04:04:12;91692.56;;;11.47;72.85
18900;BME280;9582;52.018;6.306;2024-02-15T04:06:39;91711.13;;;11.45;72.93
18900;BME280;9582;52.018;6.306;2024-02-15T04:09:08;91682.69;;;11.44;72.90
18900;BME280;9582;52.018;6.306;2024-02-15T04:11:35;91696.22;;;11.46;72.90
18900;BME280;9582;52.018;6.306;2024-02-15T04:14:03;91676.88;;;11.47;73.01
18900;BME280;9582;52.018;6.306;2024-02-15T04:16:29;91658.91;;;11.45;73.06
18900;BME280;9582;52.018;6.306;2024-02-15T04:18:57;91629.41;;;11.45;73.11
18900;BME280;9582;52.018;6.306;2024-02-15T04:21:24;91593.44;;;11.42;73.30
18900;BME280;9582;52.018;6.306;2024-02-15T04:23:52;91427.09;;;11.42;73.39
18900;BME280;9582;52.018;6.306;2024-02-15T04:26:21;91383.78;;;11.41;73.44
18900;BME280;9582;52.018;6.306;2024-02-15T04:28:52;91320.50;;;11.44;73.48
18900;BME280;9582;52.018;6.306;2024-02-15T04:31:19;91311.91;;;11.44;73.57
18900;BME280;9582;52.018;6.306;2024-02-15T04:33:52;91266.28;;;11.41;73.76
18900;BME280;9582;52.018;6.306;2024-02-15T04:36:19;91272.44;;;11.45;73.92
18900;BME280;9582;52.018;6.306;2024-02-15T04:38:49;91251.56;;;11.45;74.12
18900;BME280;9582;52.018;6.306;2024-02-15T04:41:16;91247.41;;;11.44;74.27
18900;BME280;9582;52.018;6.306;2024-02-15T04:43:46;91223.28;;;11.47;74.66
18900;BME280;9582;52.018;6.306;2024-02-15T04:46:12;91183.66;;;11.45;74.95
18900;BME280;9582;52.018;6.306;2024-02-15T04:48:39;91176.44;;;11.42;75.24
18900;BME280;9582;52.018;6.306;2024-02-15T04:51:07;91162.63;;;11.42;75.45
18900;BME280;9582;52.018;6.306;2024-02-15T04:53:33;91173.34;;;11.40;75.74
18900;BME280;9582;52.018;6.306;2024-02-15T04:56:02;91149.84;;;11.40;75.99
18900;BME280;9582;52.018;6.306;2024-02-15T04:58:35;91075.25;;;11.39;76.24
18900;BME280;9582;52.018;6.306;2024-02-15T05:01:04;91071.88;;;11.39;76.43
18900;BME280;9582;52.018;6.306;2024-02-15T05:03:32;91072.63;;;11.39;75.80
18900;BME280;9582;52.018;6.306;2024-02-15T05:06:00;91084.91;;;11.39;75.76
18900;BME280;9582;52.018;6.306;2024-02-15T05:08:27;91046.19;;;11.41;75.98
18900;BME280;9582;52.018;6.306;2024-02-15T05:10:57;91044.38;;;11.41;76.10
18900;BME280;9582;52.018;6.306;2024-02-15T05:13:24;91039.91;;;11.42;76.24
18900;BME280;9582;52.018;6.306;2024-02-15T05:15:51;91070.47;;;11.41;76.38
18900;BME280;9582;52.018;6.306;2024-02-15T05:18:19;91080.63;;;11.43;76.42
18900;BME280;9582;52.018;6.306;2024-02-15T05:20:45;91104.13;;;11.43;76.41
18900;BME280;9582;52.018;6.306;2024-02-15T05:23:12;91088.13;;;11.44;76.47
18900;BME280;9582;52.018;6.306;2024-02-15T05:25:40;91105.78;;;11.47;76.45
18900;BME280;9582;52.018;6.306;2024-02-15T05:28:06;91112.06;;;11.46;76.63
18900;BME280;9582;52.018;6.306;2024-02-15T05:30:34;91120.69;;;11.47;76.73
18900;BME280;9582;52.018;6.306;2024-02-15T05:33:03;91143.41;;;11.46;76.88
18900;BME280;9582;52.018;6.306;2024-02-15T05:35:31;91183.06;;;11.48;76.95
18900;BME280;9582;52.018;6.306;2024-02-15T05:37:58;91174.91;;;11.50;77.10
18900;BME280;9582;52.018;6.306;2024-02-15T05:40:24;91199.47;;;11.49;77.20
18900;BME280;9582;52.018;6.306;2024-02-15T05:42:55;91218.22;;;11.51;77.26
18900;BME280;9582;52.018;6.306;2024-02-15T05:45:29;91238.03;;;11.52;77.35
18900;BME280;9582;52.018;6.306;2024-02-15T05:47:58;91248.19;;;11.53;77.40
18900;BME280;9582;52.018;6.306;2024-02-15T05:50:25;91268.47;;;11.56;77.32
18900;BME280;9582;52.018;6.306;2024-02-15T05:52:56;91280.13;;;11.59;77.23
18900;BME280;9582;52.018;6.306;2024-02-15T05:55:24;91271.97;;;11.60;77.14
18900;BME280;9582;52.018;6.306;2024-02-15T05:57:52;91281.34;;;11.62;77.08
18900;BME280;9582;52.018;6.306;2024-02-15T06:00:19;91281.34;;;11.62;77.08
18900;BME280;9582;52.018;6.306;2024-02-15T06:02:46;91285.81;;;11.61;76.99
18900;BME280;9582;52.018;6.306;2024-02-15T06:05:13;91248.97;;;11.63;76.85
18900;BME280;9582;52.018;6.306;2024-02-15T06:07:43;91268.75;;;11.64;76.66
18900;BME280;9582;52.018;6.306;2024-02-15T06:10:11;91228.06;;;11.63;76.62
18900;BME280;9582;52.018;6.306;2024-02-15T06:12:38;91182.13;;;11.62;76.47
18900;BME280;9582;52.018;6.306;2024-02-15T06:15:06;91129.88;;;11.62;76.28
18900;BME280;9582;52.018;6.306;2024-02-15T06:17:40;91026.50;;;11.60;76.13
18900;BME280;9582;52.018;6.306;2024-02-15T06:20:11;90967.19;;;11.61;75.87
18900;BME280;9582;52.018;6.306;2024-02-15T06:22:39;90967.97;;;11.62;75.62
18900;BME280;9582;52.018;6.306;2024-02-15T06:25:07;90951.53;;;11.61;75.43
18900;BME280;9582;52.018;6.306;2024-02-15T06:27:36;90890.25;;;11.58;75.22
18900;BME280;9582;52.018;6.306;2024-02-15T06:30:07;90862.91;;;11.56;75.09
18900;BME280;9582;52.018;6.306;2024-02-15T06:32:51;90839.28;;;11.52;75.00
18900;BME280;9582;52.018;6.306;2024-02-15T06:35:35;90834.69;;;11.49;74.91
18900;BME280;9582;52.018;6.306;2024-02-15T06:38:19;90804.75;;;11.47;74.83
18900;BME280;9582;52.018;6.306;2024-02-15T06:41:18;90693.56;;;11.46;74.79
18900;BME280;9582;52.018;6.306;2024-02-15T06:43:46;90690.53;;;11.44;74.63
18900;BME280;9582;52.018;6.306;2024-02-15T06:46:13;90672.59;;;11.42;74.57
18900;BME280;9582;52.018;6.306;2024-02-15T06:48:41;90663.56;;;11.40;74.55
18900;BME280;9582;52.018;6.306;2024-02-15T06:51:12;90634.84;;;11.40;74.28
18900;BME280;9582;52.018;6.306;2024-02-15T06:53:40;90653.84;;;11.40;74.15
18900;BME280;9582;52.018;6.306;2024-02-15T06:56:08;90659.06;;;11.40;74.00
18900;BME280;9582;52.018;6.306;2024-02-15T06:58:35;90643.88;;;11.42;73.88
18900;BME280;9582;52.018;6.306;2024-02-15T07:01:03;90624.81;;;11.42;73.71
18900;BME280;9582;52.018;6.306;2024-02-15T07:03:30;90621.16;;;11.43;73.58
18900;BME280;9582;52.018;6.306;2024-02-15T07:05:57;90609.59;;;11.44;73.37
18900;BME280;9582;52.018;6.306;2024-02-15T07:08:24;90581.66;;;11.44;73.23
18900;BME280;9582;52.018;6.306;2024-02-15T07:10:51;90558.16;;;11.44;73.06
18900;BME280;9582;52.018;6.306;2024-02-15T07:13:17;90555.97;;;11.46;73.05
18900;BME280;9582;52.018;6.306;2024-02-15T07:15:44;90538.47;;;11.47;72.92
18900;BME280;9582;52.018;6.306;2024-02-15T07:18:15;90504.22;;;11.48;72.73
18900;BME280;9582;52.018;6.306;2024-02-15T07:20:45;90496.06;;;11.50;72.62
18900;BME280;9582;52.018;6.306;2024-02-15T07:23:11;90465.81;;;11.49;72.56
18900;BME280;9582;52.018;6.306;2024-02-15T07:25:38;90451.03;;;11.53;72.74
18900;BME280;9582;52.018;6.306;2024-02-15T07:28:05;90427.53;;;11.53;72.69
18900;BME280;9582;52.018;6.306;2024-02-15T07:30:33;90433.94;;;11.55;72.62
18900;BME280;9582;52.018;6.306;2024-02-15T07:33:00;90427.66;;;11.56;72.54
18900;BME280;9582;52.018;6.306;2024-02-15T07:35:29;90420.88;;;11.55;72.56
18900;BME280;9582;52.018;6.306;2024-02-15T07:37:55;90427.66;;;11.56;72.51
18900;BME280;9582;52.018;6.306;2024-02-15T07:40:24;90445.56;;;11.58;72.43
18900;BME280;9582;52.018;6.306;2024-02-15T07:42:56;90430.69;;;11.58;72.43
18900;BME280;9582;52.018;6.306;2024-02-15T07:45:22;90436.66;;;11.59;72.41
18900;BME280;9582;52.018;6.306;2024-02-15T07:47:49;90425.13;;;11.60;72.30
18900;BME280;9582;52.018;6.306;2024-02-15T07:50:17;90438.94;;;11.60;72.17
18900;BME280;9582;52.018;6.306;2024-02-15T07:52:49;90362.13;;;11.62;72.09
18900;BME280;9582;52.018;6.306;2024-02-15T07:55:16;90395.00;;;11.63;72.08
18900;BME280;9582;52.018;6.306;2024-02-15T07:57:43;90386.84;;;11.64;71.98
18900;BME280;9582;52.018;6.306;2024-02-15T08:00:12;90402.50;;;11.64;71.97
18900;BME280;9582;52.018;6.306;2024-02-15T08:02:42;90366.72;;;11.65;71.89
18900;BME280;9582;52.018;6.306;2024-02-15T08:05:09;90382.50;;;11.68;71.78
18900;BME280;9582;52.018;6.306;2024-02-15T08:07:37;90377.25;;;11.68;71.76
18900;BME280;9582;52.018;6.306;2024-02-15T08:10:07;90374.66;;;11.68;71.72
18900;BME280;9582;52.018;6.306;2024-02-15T08:12:39;90363.91;;;11.70;71.73
18900;BME280;9582;52.018;6.306;2024-02-15T08:15:06;90363.91;;;11.70;71.80
18900;BME280;9582;52.018;6.306;2024-02-15T08:17:38;90381.41;;;11.69;71.74
18900;BME280;9582;52.018;6.306;2024-02-15T08:20:07;90351.88;;;11.69;71.56
18900;BME280;9582;52.018;6.306;2024-02-15T08:22:34;90337.00;;;11.69;71.45
18900;BME280;9582;52.018;6.306;2024-02-15T08:25:06;90319.50;;;11.70;71.45
18900;BME280;9582;52.018;6.306;2024-02-15T08:27:37;90299.66;;;11.69;71.31
18900;BME280;9582;52.018;6.306;2024-02-15T08:30:07;90307.97;;;11.71;70.67
18900;BME280;9582;52.018;6.306;2024-02-15T08:32:34;90314.28;;;11.70;70.59
18900;BME280;9582;52.018;6.306;2024-02-15T08:35:01;90303.84;;;11.70;70.53
18900;BME280;9582;52.018;6.306;2024-02-15T08:37:30;90258.69;;;11.69;70.46
18900;BME280;9582;52.018;6.306;2024-02-15T08:39:57;90246.81;;;11.72;70.33
18900;BME280;9582;52.018;6.306;2024-02-15T08:42:26;90244.63;;;11.74;70.10
18900;BME280;9582;52.018;6.306;2024-02-15T08:44:53;90234.94;;;11.74;70.09
18900;BME280;9582;52.018;6.306;2024-02-15T08:47:20;90135.38;;;11.76;69.88
18900;BME280;9582;52.018;6.306;2024-02-15T08:49:47;90114.13;;;11.77;69.76
18900;BME280;9582;52.018;6.306;2024-02-15T08:52:14;90071.25;;;11.78;69.87
18900;BME280;9582;52.018;6.306;2024-02-15T08:54:43;90059.72;;;11.79;69.57
18900;BME280;9582;52.018;6.306;2024-02-15T08:57:09;90026.88;;;11.78;68.98
18900;BME280;9582;52.018;6.306;2024-02-15T08:59:39;89957.13;;;11.79;68.62
18900;BME280;9582;52.018;6.306;2024-02-15T09:02:08;89960.81;;;11.78;68.54
18900;BME280;9582;52.018;6.306;2024-02-15T09:04:35;89925.38;;;11.77;68.33
18900;BME280;9582;52.018;6.306;2024-02-15T09:07:01;89949.97;;;11.76;68.00
18900;BME280;9582;52.018;6.306;2024-02-15T09:09:29;89926.06;;;11.74;68.19
18900;BME280;9582;52.018;6.306;2024-02-15T09:11:57;89887.63;;;11.74;67.78
18900;BME280;9582;52.018;6.306;2024-02-15T09:14:23;89833.13;;;11.73;67.67
18900;BME280;9582;52.018;6.306;2024-02-15T09:16:51;89807.78;;;11.73;67.36
18900;BME280;9582;52.018;6.306;2024-02-15T09:19:18;89781.69;;;11.73;67.08
18900;BME280;9582;52.018;6.306;2024-02-15T09:21:44;89779.81;;;11.74;66.69
18900;BME280;9582;52.018;6.306;2024-02-15T09:24:11;89712.34;;;11.76;66.56
18900;BME280;9582;52.018;6.306;2024-02-15T09:26:38;89616.81;;;11.75;66.46
18900;BME280;9582;52.018;6.306;2024-02-15T09:29:04;89444.50;;;11.75;66.23
18900;BME280;9582;52.018;6.306;2024-02-15T09:31:31;89402.72;;;11.75;65.95
18900;BME280;9582;52.018;6.306;2024-02-15T09:34:01;89402.31;;;11.73;65.28
18900;BME280;9582;52.018;6.306;2024-02-15T09:36:33;89372.84;;;11.72;65.20
18900;BME280;9582;52.018;6.306;2024-02-15T09:39:00;89356.44;;;11.72;64.82
18900;BME280;9582;52.018;6.306;2024-02-15T09:41:27;89377.72;;;11.74;64.64
18900;BME280;9582;52.018;6.306;2024-02-15T09:43:54;89413.16;;;11.75;64.41
18900;BME280;9582;52.018;6.306;2024-02-15T09:46:20;89363.97;;;11.77;64.33
18900;BME280;9582;52.018;6.306;2024-02-15T09:48:50;89347.19;;;11.78;64.38
18900;BME280;9582;52.018;6.306;2024-02-15T09:51:20;99696.06;;;11.77;64.22
18900;BME280;9582;52.018;6.306;2024-02-15T09:53:47;97954.22;;;11.77;64.14
18900;BME280;9582;52.018;6.306;2024-02-15T09:56:15;98126.28;;;11.75;63.94
18900;BME280;9582;52.018;6.306;2024-02-15T09:58:43;98239.66;;;11.75;63.37
18900;BME280;9582;52.018;6.306;2024-02-15T10:01:10;98324.53;;;11.73;63.95
18900;BME280;9582;52.018;6.306;2024-02-15T10:03:37;98329.75;;;11.73;63.93
18900;BME280;9582;52.018;6.306;2024-02-15T10:06:05;98406.50;;;11.73;63.88
18900;BME280;9582;52.018;6.306;2024-02-15T10:08:34;98458.72;;;11.75;63.72
18900;BME280;9582;52.018;6.306;2024-02-15T10:11:07;98450.34;;;11.81;63.58
18900;BME280;9582;52.018;6.306;2024-02-15T10:13:34;98527.66;;;11.85;63.50
18900;BME280;9582;52.018;6.306;2024-02-15T10:16:14;98487.88;;;11.91;63.05
18900;BME280;9582;52.018;6.306;2024-02-15T10:18:40;98322.59;;;11.94;62.94
18900;BME280;9582;52.018;6.306;2024-02-15T10:21:07;98152.13;;;11.97;62.97
18900;BME280;9582;52.018;6.306;2024-02-15T10:23:35;98010.44;;;12.00;62.85
18900;BME280;9582;52.018;6.306;2024-02-15T10:26:19;97937.13;;;12.00;62.65
18900;BME280;9582;52.018;6.306;2024-02-15T10:29:04;97944.03;;;12.01;62.48
18900;BME280;9582;52.018;6.306;2024-02-15T10:31:32;97981.34;;;12.03;62.51
18900;BME280;9582;52.018;6.306;2024-02-15T10:34:02;98030.16;;;12.04;62.61
18900;BME280;9582;52.018;6.306;2024-02-15T10:36:30;98055.22;;;12.06;62.45
18900;BME280;9582;52.018;6.306;2024-02-15T10:39:11;98110.19;;;12.16;62.41
18900;BME280;9582;52.018;6.306;2024-02-15T10:41:43;98170.53;;;12.24;62.04
18900;BME280;9582;52.018;6.306;2024-02-15T10:44:15;98224.97;;;12.30;62.20
18900;BME280;9582;52.018;6.306;2024-02-15T10:46:44;98251.84;;;12.32;62.60
18900;BME280;9582;52.018;6.306;2024-02-15T10:49:11;98174.59;;;12.36;62.61
18900;BME280;9582;52.018;6.306;2024-02-15T10:51:40;98339.13;;;12.42;62.76
18900;BME280;9582;52.018;6.306;2024-02-15T10:54:13;98468.50;;;12.41;62.85
18900;BME280;9582;52.018;6.306;2024-02-15T10:56:43;98684.09;;;12.43;63.52
18900;BME280;9582;52.018;6.306;2024-02-15T10:59:16;98835.50;;;12.40;64.04
18900;BME280;9582;52.018;6.306;2024-02-15T11:01:45;98943.69;;;12.42;64.35
18900;BME280;9582;52.018;6.306;2024-02-15T11:04:15;98986.69;;;12.39;64.57
18900;BME280;9582;52.018;6.306;2024-02-15T11:06:43;99097.59;;;12.40;65.14
18900;BME280;9582;52.018;6.306;2024-02-15T11:09:11;99206.03;;;12.39;65.56
18900;BME280;9582;52.018;6.306;2024-02-15T11:11:41;99252.13;;;12.41;65.77
18900;BME280;9582;52.018;6.306;2024-02-15T11:14:23;99262.63;;;12.41;66.31
18900;BME280;9582;52.018;6.306;2024-02-15T11:16:50;99305.41;;;12.42;66.86
18900;BME280;9582;52.018;6.306;2024-02-15T11:22:16;99429.19;;;12.45;67.75
18900;BME280;9582;52.018;6.306;2024-02-15T11:24:47;99513.81;;;12.47;68.22
18900;BME280;9582;52.018;6.306;2024-02-15T11:27:24;99550.53;;;12.47;68.60
18900;BME280;9582;52.018;6.306;2024-02-15T11:29:52;99594.03;;;12.50;68.85
18900;BME280;9582;52.018;6.306;2024-02-15T11:32:43;99639.19;;;12.53;69.17
18900;BME280;9582;52.018;6.306;2024-02-15T11:35:13;99653.91;;;12.56;69.41
18900;BME280;9582;52.018;6.306;2024-02-15T11:38:01;99709.69;;;12.58;69.70
18900;BME280;9582;52.018;6.306;2024-02-15T11:41:01;99745.22;;;12.62;69.93
18900;BME280;9582;52.018;6.306;2024-02-15T11:43:48;99779.00;;;12.66;70.08
18900;BME280;9582;52.018;6.306;2024-02-15T11:46:24;99724.78;;;12.67;69.66
18900;BME280;9582;52.018;6.306;2024-02-15T11:48:52;99777.81;;;12.70;70.01
18900;BME280;9582;52.018;6.306;2024-02-15T11:51:30;99838.16;;;12.70;70.29
18900;BME280;9582;52.018;6.306;2024-02-15T11:54:02;99821.16;;;12.76;70.38
18900;BME280;9582;52.018;6.306;2024-02-15T11:56:31;99777.41;;;12.77;71.08
18900;BME280;9582;52.018;6.306;2024-02-15T11:59:04;99794.41;;;12.84;70.98
18900;BME280;9582;52.018;6.306;2024-02-15T12:01:32;99769.53;;;12.89;71.06
18900;BME280;9582;52.018;6.306;2024-02-15T12:04:18;98803.00;;;13.03;70.97
18900;BME280;9582;52.018;6.306;2024-02-15T12:07:14;98647.44;;;13.12;71.16
18900;BME280;9582;52.018;6.306;2024-02-15T12:09:58;98798.38;;;13.16;71.48
18900;BME280;9582;52.018;6.306;2024-02-15T12:12:50;98997.53;;;13.19;71.77
18900;BME280;9582;52.018;6.306;2024-02-15T12:15:36;99087.09;;;13.25;72.11
18900;BME280;9582;52.018;6.306;2024-02-15T12:18:20;99138.50;;;13.28;72.49
18900;BME280;9582;52.018;6.306;2024-02-15T12:21:05;99149.69;;;13.30;73.04
18900;BME280;9582;52.018;6.306;2024-02-15T12:23:35;99238.09;;;13.29;73.50
18900;BME280;9582;52.018;6.306;2024-02-15T12:26:02;99302.06;;;13.28;73.72
18900;BME280;9582;52.018;6.306;2024-02-15T12:28:29;99375.44;;;13.30;74.00
18900;BME280;9582;52.018;6.306;2024-02-15T12:30:57;99426.84;;;13.32;74.32
18900;BME280;9582;52.018;6.306;2024-02-15T12:33:24;99417.91;;;13.35;74.79
18900;BME280;9582;52.018;6.306;2024-02-15T12:36:03;99504.06;;;13.41;74.92
18900;BME280;9582;52.018;6.306;2024-02-15T12:38:30;99574.84;;;13.43;74.86
18900;BME280;9582;52.018;6.306;2024-02-15T12:40:57;99582.97;;;13.51;74.99
18900;BME280;9582;52.018;6.306;2024-02-15T12:43:23;99721.09;;;13.53;75.32
18900;BME280;9582;52.018;6.306;2024-02-15T12:45:51;99815.19;;;13.59;75.48
18900;BME280;9582;52.018;6.306;2024-02-15T12:48:21;99811.63;;;13.60;75.89
18900;BME280;9582;52.018;6.306;2024-02-15T12:50:47;99781.53;;;13.64;76.22
18900;BME280;9582;52.018;6.306;2024-02-15T12:53:20;99810.09;;;13.69;76.62
18900;BME280;9582;52.018;6.306;2024-02-15T12:55:52;100027.31;;;13.68;76.91
18900;BME280;9582;52.018;6.306;2024-02-15T12:58:20;99993.16;;;13.68;77.31
18900;BME280;9582;52.018;6.306;2024-02-15T13:00:49;99910.66;;;13.71;77.59
18900;BME280;9582;52.018;6.306;2024-02-15T13:03:16;99877.56;;;13.68;77.88
18900;BME280;9582;52.018;6.306;2024-02-15T13:05:44;99766.03;;;13.72;78.06
18900;BME280;9582;52.018;6.306;2024-02-15T13:08:14;99658.97;;;13.76;77.87
18900;BME280;9582;52.018;6.306;2024-02-15T13:10:43;99695.59;;;13.77;78.07
18900;BME280;9582;52.018;6.306;2024-02-15T13:13:10;99652.53;;;13.80;78.21
18900;BME280;9582;52.018;6.306;2024-02-15T13:15:37;99591.03;;;13.82;78.57
18900;BME280;9582;52.018;6.306;2024-02-15T13:18:04;99616.94;;;13.87;78.90
18900;BME280;9582;52.018;6.306;2024-02-15T13:20:31;99609.88;;;13.87;79.34
18900;BME280;9582;52.018;6.306;2024-02-15T13:23:02;99594.59;;;13.93;79.63